Overview Statistics Trail Chart Weather Telemetry Raw packets
 

This is the latest recevied weather packets stored in our database for station/object N5TDX. If no packets are shown the sender has not sent any weather packets the latest 10 day(s).

<< 43 44 45 46 47 48 49 >>
Time Temp. Humidity Pressure Rain* Wind** Luminosity Snow
1788371927 37.22° C 38% 1012.1 hPa 0 mm - - -
1788371623 37.22° C 37% 1012.2 hPa 0 mm - - -
1788371318 37.22° C 37% 1012.3 hPa 0 mm - - -
1788371016 37.22° C 37% 1012.5 hPa 0 mm - - -
1788370711 37.22° C 38% 1012.6 hPa 0 mm - - -
1788370410 37.22° C 37% 1012.5 hPa 0 mm - - -
1788370105 36.67° C 38% 1012.4 hPa 0 mm - - -
1788369804 36.67° C 38% 1012.8 hPa 0 mm - - -
1788369500 36.11° C 39% 1012.9 hPa 0 mm - - -
1788369195 36.67° C 39% 1012.9 hPa 0 mm - - -
1788368886 37.22° C 37% 1012.9 hPa 0 mm - - -
1788368581 36.67° C 38% 1012.9 hPa 0 mm - - -
1788368276 37.22° C 37% 1013.1 hPa 0 mm - - -
1788367975 36.67° C 38% 1012.9 hPa 0 mm - - -
1788367670 36.11° C 39% 1013 hPa 0 mm - - -
1788367370 36.67° C 39% 1013.1 hPa 0 mm - - -
1788367065 36.67° C 38% 1013.1 hPa 0 mm - - -
1788366765 36.67° C 38% 1013.1 hPa 0 mm - - -
1788366463 35.56° C 40% 1013.2 hPa 0 mm - - -
1788366158 35.56° C 40% 1013.2 hPa 0 mm - - -
1788365853 35° C 42% 1013.3 hPa 0 mm - - -
1788365549 34.44° C 43% 1013.3 hPa 0 mm - - -
1788365246 35° C 44% 1013.3 hPa 0 mm - - -
1788364946 34.44° C 45% 1013.2 hPa 0 mm - - -
1788364653 33.89° C 48% 1013.3 hPa 0 mm - - -

* Rain latest hour (hover to see other rain measurements)
** Current wind speed in m/s (hover to see current wind gust speed)